<?xml version="1.0" encoding="UTF-8" standalone="no" ?><gpx xmlns="http://www.topografix.com/GPX/1/1" xmlns:gpxx="http://www.garmin.com/xmlschemas/GpxExtensions/v3" xmlns:wptx1="http://www.garmin.com/xmlschemas/WaypointExtension/v1" xmlns:gpxtpx="http://www.garmin.com/xmlschemas/TrackPointExtension/v1" creator="GuideVTT.com" version="1.1" xmlns:xsi="http://www.w3.org/2001/XMLSchema-instance" xsi:schemaLocation="http://www.topografix.com/GPX/1/1 http://www.topografix.com/GPX/1/1/gpx.xsd http://www.garmin.com/xmlschemas/GpxExtensions/v3 http://www8.garmin.com/xmlschemas/GpxExtensionsv3.xsd http://www.garmin.com/xmlschemas/WaypointExtension/v1 http://www8.garmin.com/xmlschemas/WaypointExtensionv1.xsd http://www.garmin.com/xmlschemas/TrackPointExtension/v1 http://www.garmin.com/xmlschemas/TrackPointExtensionv1.xsd">
<metadata><link href="http://www.garmin.com"><text>Garmin International</text></link><time>2013-06-22T15:13:50Z</time></metadata>
<trk><name>23_janvier_2009_raquette.gpx</name><extensions><gpxx:TrackExtension><gpxx:DisplayColor>Cyan</gpxx:DisplayColor></gpxx:TrackExtension></extensions><trkseg>
<trkpt lat="-72.243246" lon="326.0"><ele></ele><time>2014-7-3T14:39:1Z</time></trkpt>
<trkpt lat="-72.243260" lon="325.0"><ele></ele><time>2014-7-3T14:39:4Z</time></trkpt>
<trkpt lat="-72.243241" lon="325.0"><ele></ele><time>2014-7-3T14:39:7Z</time></trkpt>
<trkpt lat="-72.243193" lon="320.0"><ele></ele><time>2014-7-3T14:39:10Z</time></trkpt>
<trkpt lat="-72.243195" lon="321.0"><ele></ele><time>2014-7-3T14:39:13Z</time></trkpt>
<trkpt lat="-72.243175" lon="321.0"><ele></ele><time>2014-7-3T14:39:16Z</time></trkpt>
<trkpt lat="-72.243115" lon="328.0"><ele></ele><time>2014-7-3T14:39:19Z</time></trkpt>
<trkpt lat="-72.243131" lon="321.0"><ele></ele><time>2014-7-3T14:39:22Z</time></trkpt>
<trkpt lat="-72.243175" lon="318.0"><ele></ele><time>2014-7-3T14:39:25Z</time></trkpt>
<trkpt lat="-72.243175" lon="318.0"><ele></ele><time>2014-7-3T14:39:28Z</time></trkpt>
<trkpt lat="-72.243150" lon="319.0"><ele></ele><time>2014-7-3T14:39:31Z</time></trkpt>
<trkpt lat="-72.243141" lon="317.0"><ele></ele><time>2014-7-3T14:39:34Z</time></trkpt>
<trkpt lat="-72.243150" lon="316.0"><ele></ele><time>2014-7-3T14:39:37Z</time></trkpt>
<trkpt lat="-72.243174" lon="315.0"><ele></ele><time>2014-7-3T14:39:40Z</time></trkpt>
<trkpt lat="-72.243147" lon="315.0"><ele></ele><time>2014-7-3T14:39:43Z</time></trkpt>
<trkpt lat="-72.243167" lon="317.0"><ele></ele><time>2014-7-3T14:39:46Z</time></trkpt>
<trkpt lat="-72.243260" lon="318.0"><ele></ele><time>2014-7-3T14:39:49Z</time></trkpt>
<trkpt lat="-72.243299" lon="319.0"><ele></ele><time>2014-7-3T14:39:52Z</time></trkpt>
<trkpt lat="-72.243396" lon="320.0"><ele></ele><time>2014-7-3T14:39:55Z</time></trkpt>
<trkpt lat="-72.243450" lon="320.0"><ele></ele><time>2014-7-3T14:39:58Z</time></trkpt>
<trkpt lat="-72.243486" lon="320.0"><ele></ele><time>2014-7-3T14:40:1Z</time></trkpt>
<trkpt lat="-72.243649" lon="320.0"><ele></ele><time>2014-7-3T14:40:4Z</time></trkpt>
<trkpt lat="-72.243785" lon="318.0"><ele></ele><time>2014-7-3T14:40:7Z</time></trkpt>
<trkpt lat="-72.244079" lon="314.0"><ele></ele><time>2014-7-3T14:40:10Z</time></trkpt>
<trkpt lat="-72.244360" lon="310.0"><ele></ele><time>2014-7-3T14:40:13Z</time></trkpt>
<trkpt lat="-72.244558" lon="310.0"><ele></ele><time>2014-7-3T14:40:16Z</time></trkpt>
<trkpt lat="-72.244703" lon="310.0"><ele></ele><time>2014-7-3T14:40:19Z</time></trkpt>
<trkpt lat="-72.244994" lon="310.0"><ele></ele><time>2014-7-3T14:40:22Z</time></trkpt>
<trkpt lat="-72.245296" lon="310.0"><ele></ele><time>2014-7-3T14:40:25Z</time></trkpt>
<trkpt lat="-72.245431" lon="310.0"><ele></ele><time>2014-7-3T14:40:28Z</time></trkpt>
<trkpt lat="-72.245720" lon="311.0"><ele></ele><time>2014-7-3T14:40:31Z</time></trkpt>
<trkpt lat="-72.245979" lon="312.0"><ele></ele><time>2014-7-3T14:40:34Z</time></trkpt>
<trkpt lat="-72.246063" lon="312.0"><ele></ele><time>2014-7-3T14:40:37Z</time></trkpt>
<trkpt lat="-72.246220" lon="312.0"><ele></ele><time>2014-7-3T14:40:40Z</time></trkpt>
<trkpt lat="-72.246415" lon="311.0"><ele></ele><time>2014-7-3T14:40:43Z</time></trkpt>
<trkpt lat="-72.246692" lon="308.0"><ele></ele><time>2014-7-3T14:40:46Z</time></trkpt>
<trkpt lat="-72.247002" lon="303.0"><ele></ele><time>2014-7-3T14:40:49Z</time></trkpt>
<trkpt lat="-72.247079" lon="302.0"><ele></ele><time>2014-7-3T14:40:52Z</time></trkpt>
<trkpt lat="-72.247323" lon="300.0"><ele></ele><time>2014-7-3T14:40:55Z</time></trkpt>
<trkpt lat="-72.247794" lon="295.0"><ele></ele><time>2014-7-3T14:40:58Z</time></trkpt>
<trkpt lat="-72.247793" lon="291.0"><ele></ele><time>2014-7-3T14:41:1Z</time></trkpt>
<trkpt lat="-72.247802" lon="285.0"><ele></ele><time>2014-7-3T14:41:4Z</time></trkpt>
<trkpt lat="-72.247795" lon="290.0"><ele></ele><time>2014-7-3T14:41:7Z</time></trkpt>
<trkpt lat="-72.247792" lon="291.0"><ele></ele><time>2014-7-3T14:41:10Z</time></trkpt>
<trkpt lat="-72.247781" lon="291.0"><ele></ele><time>2014-7-3T14:41:13Z</time></trkpt>
<trkpt lat="-72.247727" lon="292.0"><ele></ele><time>2014-7-3T14:41:16Z</time></trkpt>
<trkpt lat="-72.247740" lon="291.0"><ele></ele><time>2014-7-3T14:41:19Z</time></trkpt>
<trkpt lat="-72.247732" lon="289.0"><ele></ele><time>2014-7-3T14:41:22Z</time></trkpt>
<trkpt lat="-72.247745" lon="287.0"><ele></ele><time>2014-7-3T14:41:25Z</time></trkpt>
<trkpt lat="-72.248078" lon="288.0"><ele></ele><time>2014-7-3T14:41:28Z</time></trkpt>
<trkpt lat="-72.248342" lon="290.0"><ele></ele><time>2014-7-3T14:41:31Z</time></trkpt>
<trkpt lat="-72.248574" lon="292.0"><ele></ele><time>2014-7-3T14:41:34Z</time></trkpt>
<trkpt lat="-72.249190" lon="295.0"><ele></ele><time>2014-7-3T14:41:37Z</time></trkpt>
<trkpt lat="-72.249369" lon="297.0"><ele></ele><time>2014-7-3T14:41:40Z</time></trkpt>
<trkpt lat="-72.249444" lon="298.0"><ele></ele><time>2014-7-3T14:41:43Z</time></trkpt>
<trkpt lat="-72.249621" lon="300.0"><ele></ele><time>2014-7-3T14:41:46Z</time></trkpt>
<trkpt lat="-72.249709" lon="303.0"><ele></ele><time>2014-7-3T14:41:49Z</time></trkpt>
<trkpt lat="-72.249744" lon="304.0"><ele></ele><time>2014-7-3T14:41:52Z</time></trkpt>
<trkpt lat="-72.249763" lon="305.0"><ele></ele><time>2014-7-3T14:41:55Z</time></trkpt>
<trkpt lat="-72.249844" lon="306.0"><ele></ele><time>2014-7-3T14:41:58Z</time></trkpt>
<trkpt lat="-72.249985" lon="306.0"><ele></ele><time>2014-7-3T14:42:1Z</time></trkpt>
<trkpt lat="-72.250228" lon="310.0"><ele></ele><time>2014-7-3T14:42:4Z</time></trkpt>
<trkpt lat="-72.250510" lon="311.0"><ele></ele><time>2014-7-3T14:42:7Z</time></trkpt>
<trkpt lat="-72.250639" lon="312.0"><ele></ele><time>2014-7-3T14:42:10Z</time></trkpt>
<trkpt lat="-72.250880" lon="314.0"><ele></ele><time>2014-7-3T14:42:13Z</time></trkpt>
<trkpt lat="-72.250984" lon="314.0"><ele></ele><time>2014-7-3T14:42:16Z</time></trkpt>
<trkpt lat="-72.251204" lon="315.0"><ele></ele><time>2014-7-3T14:42:19Z</time></trkpt>
<trkpt lat="-72.251480" lon="315.0"><ele></ele><time>2014-7-3T14:42:22Z</time></trkpt>
<trkpt lat="-72.251808" lon="317.0"><ele></ele><time>2014-7-3T14:42:25Z</time></trkpt>
<trkpt lat="-72.251928" lon="317.0"><ele></ele><time>2014-7-3T14:42:28Z</time></trkpt>
<trkpt lat="-72.252061" lon="319.0"><ele></ele><time>2014-7-3T14:42:31Z</time></trkpt>
<trkpt lat="-72.252088" lon="319.0"><ele></ele><time>2014-7-3T14:42:34Z</time></trkpt>
<trkpt lat="-72.252089" lon="319.0"><ele></ele><time>2014-7-3T14:42:37Z</time></trkpt>
<trkpt lat="-72.252061" lon="320.0"><ele></ele><time>2014-7-3T14:42:40Z</time></trkpt>
<trkpt lat="-72.252028" lon="321.0"><ele></ele><time>2014-7-3T14:42:43Z</time></trkpt>
<trkpt lat="-72.251923" lon="322.0"><ele></ele><time>2014-7-3T14:42:46Z</time></trkpt>
<trkpt lat="-72.251659" lon="327.0"><ele></ele><time>2014-7-3T14:42:49Z</time></trkpt>
<trkpt lat="-72.251670" lon="328.0"><ele></ele><time>2014-7-3T14:42:52Z</time></trkpt>
<trkpt lat="-72.251662" lon="331.0"><ele></ele><time>2014-7-3T14:42:55Z</time></trkpt>
<trkpt lat="-72.251676" lon="332.0"><ele></ele><time>2014-7-3T14:42:58Z</time></trkpt>
<trkpt lat="-72.251649" lon="337.0"><ele></ele><time>2014-7-3T14:43:1Z</time></trkpt>
<trkpt lat="-72.251649" lon="334.0"><ele></ele><time>2014-7-3T14:43:4Z</time></trkpt>
<trkpt lat="-72.253248" lon="378.0"><ele></ele><time>2014-7-3T14:43:7Z</time></trkpt>
<trkpt lat="-72.253249" lon="379.0"><ele></ele><time>2014-7-3T14:43:10Z</time></trkpt>
<trkpt lat="-72.253238" lon="378.0"><ele></ele><time>2014-7-3T14:43:13Z</time></trkpt>
<trkpt lat="-72.253260" lon="377.0"><ele></ele><time>2014-7-3T14:43:16Z</time></trkpt>
<trkpt lat="-72.253310" lon="377.0"><ele></ele><time>2014-7-3T14:43:19Z</time></trkpt>
<trkpt lat="-72.253394" lon="377.0"><ele></ele><time>2014-7-3T14:43:22Z</time></trkpt>
<trkpt lat="-72.253425" lon="377.0"><ele></ele><time>2014-7-3T14:43:25Z</time></trkpt>
<trkpt lat="-72.253560" lon="375.0"><ele></ele><time>2014-7-3T14:43:28Z</time></trkpt>
<trkpt lat="-72.253632" lon="373.0"><ele></ele><time>2014-7-3T14:43:31Z</time></trkpt>
<trkpt lat="-72.253651" lon="371.0"><ele></ele><time>2014-7-3T14:43:34Z</time></trkpt>
<trkpt lat="-72.253835" lon="370.0"><ele></ele><time>2014-7-3T14:43:37Z</time></trkpt>
<trkpt lat="-72.253916" lon="370.0"><ele></ele><time>2014-7-3T14:43:40Z</time></trkpt>
<trkpt lat="-72.253974" lon="370.0"><ele></ele><time>2014-7-3T14:43:43Z</time></trkpt>
<trkpt lat="-72.254049" lon="369.0"><ele></ele><time>2014-7-3T14:43:46Z</time></trkpt>
<trkpt lat="-72.254198" lon="369.0"><ele></ele><time>2014-7-3T14:43:49Z</time></trkpt>
<trkpt lat="-72.254410" lon="368.0"><ele></ele><time>2014-7-3T14:43:52Z</time></trkpt>
<trkpt lat="-72.254521" lon="368.0"><ele></ele><time>2014-7-3T14:43:55Z</time></trkpt>
<trkpt lat="-72.254606" lon="368.0"><ele></ele><time>2014-7-3T14:43:58Z</time></trkpt>
<trkpt lat="-72.254816" lon="366.0"><ele></ele><time>2014-7-3T14:44:1Z</time></trkpt>
<trkpt lat="-72.255206" lon="362.0"><ele></ele><time>2014-7-3T14:44:4Z</time></trkpt>
<trkpt lat="-72.255278" lon="361.0"><ele></ele><time>2014-7-3T14:44:7Z</time></trkpt>
<trkpt lat="-72.255330" lon="359.0"><ele></ele><time>2014-7-3T14:44:10Z</time></trkpt>
<trkpt lat="-72.255342" lon="358.0"><ele></ele><time>2014-7-3T14:44:13Z</time></trkpt>
<trkpt lat="-72.255328" lon="356.0"><ele></ele><time>2014-7-3T14:44:16Z</time></trkpt>
<trkpt lat="-72.255365" lon="355.0"><ele></ele><time>2014-7-3T14:44:19Z</time></trkpt>
<trkpt lat="-72.255442" lon="352.0"><ele></ele><time>2014-7-3T14:44:22Z</time></trkpt>
<trkpt lat="-72.255563" lon="351.0"><ele></ele><time>2014-7-3T14:44:25Z</time></trkpt>
<trkpt lat="-72.255703" lon="351.0"><ele></ele><time>2014-7-3T14:44:28Z</time></trkpt>
<trkpt lat="-72.255769" lon="350.0"><ele></ele><time>2014-7-3T14:44:31Z</time></trkpt>
<trkpt lat="-72.255931" lon="346.0"><ele></ele><time>2014-7-3T14:44:34Z</time></trkpt>
<trkpt lat="-72.255948" lon="344.0"><ele></ele><time>2014-7-3T14:44:37Z</time></trkpt>
<trkpt lat="-72.256022" lon="342.0"><ele></ele><time>2014-7-3T14:44:40Z</time></trkpt>
<trkpt lat="-72.256069" lon="339.0"><ele></ele><time>2014-7-3T14:44:43Z</time></trkpt>
<trkpt lat="-72.256060" lon="337.0"><ele></ele><time>2014-7-3T14:44:46Z</time></trkpt>
<trkpt lat="-72.256015" lon="332.0"><ele></ele><time>2014-7-3T14:44:49Z</time></trkpt>
<trkpt lat="-72.256025" lon="330.0"><ele></ele><time>2014-7-3T14:44:52Z</time></trkpt>
<trkpt lat="-72.256047" lon="328.0"><ele></ele><time>2014-7-3T14:44:55Z</time></trkpt>
<trkpt lat="-72.256140" lon="326.0"><ele></ele><time>2014-7-3T14:44:58Z</time></trkpt>
<trkpt lat="-72.256511" lon="322.0"><ele></ele><time>2014-7-3T14:45:1Z</time></trkpt>
<trkpt lat="-72.256886" lon="313.0"><ele></ele><time>2014-7-3T14:45:4Z</time></trkpt>
<trkpt lat="-72.257192" lon="310.0"><ele></ele><time>2014-7-3T14:45:7Z</time></trkpt>
<trkpt lat="-72.257768" lon="305.0"><ele></ele><time>2014-7-3T14:45:10Z</time></trkpt>
<trkpt lat="-72.257863" lon="305.0"><ele></ele><time>2014-7-3T14:45:13Z</time></trkpt>
<trkpt lat="-72.257914" lon="306.0"><ele></ele><time>2014-7-3T14:45:16Z</time></trkpt>
<trkpt lat="-72.257894" lon="301.0"><ele></ele><time>2014-7-3T14:45:19Z</time></trkpt>
<trkpt lat="-72.257877" lon="302.0"><ele></ele><time>2014-7-3T14:45:22Z</time></trkpt>
<trkpt lat="-72.257942" lon="296.0"><ele></ele><time>2014-7-3T14:45:25Z</time></trkpt>
<trkpt lat="-72.257940" lon="295.0"><ele></ele><time>2014-7-3T14:45:28Z</time></trkpt>
<trkpt lat="-72.257866" lon="295.0"><ele></ele><time>2014-7-3T14:45:31Z</time></trkpt>
<trkpt lat="-72.257757" lon="295.0"><ele></ele><time>2014-7-3T14:45:34Z</time></trkpt>
<trkpt lat="-72.257684" lon="295.0"><ele></ele><time>2014-7-3T14:45:37Z</time></trkpt>
<trkpt lat="-72.257639" lon="295.0"><ele></ele><time>2014-7-3T14:45:40Z</time></trkpt>
<trkpt lat="-72.257537" lon="295.0"><ele></ele><time>2014-7-3T14:45:43Z</time></trkpt>
<trkpt lat="-72.257366" lon="296.0"><ele></ele><time>2014-7-3T14:45:46Z</time></trkpt>
<trkpt lat="-72.257188" lon="295.0"><ele></ele><time>2014-7-3T14:45:49Z</time></trkpt>
<trkpt lat="-72.257129" lon="295.0"><ele></ele><time>2014-7-3T14:45:52Z</time></trkpt>
<trkpt lat="-72.256962" lon="295.0"><ele></ele><time>2014-7-3T14:45:55Z</time></trkpt>
<trkpt lat="-72.256769" lon="294.0"><ele></ele><time>2014-7-3T14:45:58Z</time></trkpt>
<trkpt lat="-72.256534" lon="295.0"><ele></ele><time>2014-7-3T14:46:1Z</time></trkpt>
<trkpt lat="-72.256417" lon="296.0"><ele></ele><time>2014-7-3T14:46:4Z</time></trkpt>
<trkpt lat="-72.256201" lon="297.0"><ele></ele><time>2014-7-3T14:46:7Z</time></trkpt>
<trkpt lat="-72.256139" lon="297.0"><ele></ele><time>2014-7-3T14:46:10Z</time></trkpt>
<trkpt lat="-72.255748" lon="296.0"><ele></ele><time>2014-7-3T14:46:13Z</time></trkpt>
<trkpt lat="-72.255602" lon="296.0"><ele></ele><time>2014-7-3T14:46:16Z</time></trkpt>
<trkpt lat="-72.255474" lon="296.0"><ele></ele><time>2014-7-3T14:46:19Z</time></trkpt>
<trkpt lat="-72.255331" lon="296.0"><ele></ele><time>2014-7-3T14:46:22Z</time></trkpt>
<trkpt lat="-72.255258" lon="295.0"><ele></ele><time>2014-7-3T14:46:25Z</time></trkpt>
<trkpt lat="-72.255194" lon="296.0"><ele></ele><time>2014-7-3T14:46:28Z</time></trkpt>
<trkpt lat="-72.254875" lon="300.0"><ele></ele><time>2014-7-3T14:46:31Z</time></trkpt>
<trkpt lat="-72.254611" lon="301.0"><ele></ele><time>2014-7-3T14:46:34Z</time></trkpt>
<trkpt lat="-72.253956" lon="301.0"><ele></ele><time>2014-7-3T14:46:37Z</time></trkpt>
<trkpt lat="-72.253796" lon="300.0"><ele></ele><time>2014-7-3T14:46:40Z</time></trkpt>
<trkpt lat="-72.253421" lon="298.0"><ele></ele><time>2014-7-3T14:46:43Z</time></trkpt>
<trkpt lat="-72.253289" lon="297.0"><ele></ele><time>2014-7-3T14:46:46Z</time></trkpt>
<trkpt lat="-72.253114" lon="296.0"><ele></ele><time>2014-7-3T14:46:49Z</time></trkpt>
<trkpt lat="-72.252962" lon="295.0"><ele></ele><time>2014-7-3T14:46:52Z</time></trkpt>
<trkpt lat="-72.252755" lon="294.0"><ele></ele><time>2014-7-3T14:46:55Z</time></trkpt>
<trkpt lat="-72.252430" lon="294.0"><ele></ele><time>2014-7-3T14:46:58Z</time></trkpt>
<trkpt lat="-72.252206" lon="294.0"><ele></ele><time>2014-7-3T14:47:1Z</time></trkpt>
<trkpt lat="-72.252001" lon="292.0"><ele></ele><time>2014-7-3T14:47:4Z</time></trkpt>
<trkpt lat="-72.251268" lon="292.0"><ele></ele><time>2014-7-3T14:47:7Z</time></trkpt>
<trkpt lat="-72.250881" lon="291.0"><ele></ele><time>2014-7-3T14:47:10Z</time></trkpt>
<trkpt lat="-72.250687" lon="293.0"><ele></ele><time>2014-7-3T14:47:13Z</time></trkpt>
<trkpt lat="-72.250003" lon="296.0"><ele></ele><time>2014-7-3T14:47:16Z</time></trkpt>
<trkpt lat="-72.249904" lon="296.0"><ele></ele><time>2014-7-3T14:47:19Z</time></trkpt>
<trkpt lat="-72.248663" lon="297.0"><ele></ele><time>2014-7-3T14:47:22Z</time></trkpt>
<trkpt lat="-72.248157" lon="298.0"><ele></ele><time>2014-7-3T14:47:25Z</time></trkpt>
<trkpt lat="-72.247399" lon="298.0"><ele></ele><time>2014-7-3T14:47:28Z</time></trkpt>
<trkpt lat="-72.246935" lon="299.0"><ele></ele><time>2014-7-3T14:47:31Z</time></trkpt>
<trkpt lat="-72.246613" lon="299.0"><ele></ele><time>2014-7-3T14:47:34Z</time></trkpt>
<trkpt lat="-72.246452" lon="299.0"><ele></ele><time>2014-7-3T14:47:37Z</time></trkpt>
<trkpt lat="-72.246179" lon="300.0"><ele></ele><time>2014-7-3T14:47:40Z</time></trkpt>
<trkpt lat="-72.246110" lon="300.0"><ele></ele><time>2014-7-3T14:47:43Z</time></trkpt>
<trkpt lat="-72.245983" lon="300.0"><ele></ele><time>2014-7-3T14:47:46Z</time></trkpt>
<trkpt lat="-72.245545" lon="300.0"><ele></ele><time>2014-7-3T14:47:49Z</time></trkpt>
<trkpt lat="-72.245285" lon="301.0"><ele></ele><time>2014-7-3T14:47:52Z</time></trkpt>
<trkpt lat="-72.245127" lon="302.0"><ele></ele><time>2014-7-3T14:47:55Z</time></trkpt>
<trkpt lat="-72.244666" lon="302.0"><ele></ele><time>2014-7-3T14:47:58Z</time></trkpt>
<trkpt lat="-72.244353" lon="303.0"><ele></ele><time>2014-7-3T14:48:1Z</time></trkpt>
<trkpt lat="-72.244058" lon="304.0"><ele></ele><time>2014-7-3T14:48:4Z</time></trkpt>
<trkpt lat="-72.243928" lon="306.0"><ele></ele><time>2014-7-3T14:48:7Z</time></trkpt>
<trkpt lat="-72.243866" lon="306.0"><ele></ele><time>2014-7-3T14:48:10Z</time></trkpt>
<trkpt lat="-72.243772" lon="307.0"><ele></ele><time>2014-7-3T14:48:13Z</time></trkpt>
<trkpt lat="-72.243702" lon="308.0"><ele></ele><time>2014-7-3T14:48:16Z</time></trkpt>
<trkpt lat="-72.243496" lon="313.0"><ele></ele><time>2014-7-3T14:48:19Z</time></trkpt>
<trkpt lat="-72.243360" lon="314.0"><ele></ele><time>2014-7-3T14:48:22Z</time></trkpt>
<trkpt lat="-72.243327" lon="315.0"><ele></ele><time>2014-7-3T14:48:25Z</time></trkpt>
<trkpt lat="-72.243280" lon="316.0"><ele></ele><time>2014-7-3T14:48:28Z</time></trkpt>
<trkpt lat="-72.243208" lon="317.0"><ele></ele><time>2014-7-3T14:48:31Z</time></trkpt>
<trkpt lat="-72.243110" lon="316.0"><ele></ele><time>2014-7-3T14:48:34Z</time></trkpt>
<trkpt lat="-72.243107" lon="318.0"><ele></ele><time>2014-7-3T14:48:37Z</time></trkpt>
<trkpt lat="-72.243137" lon="319.0"><ele></ele><time>2014-7-3T14:48:40Z</time></trkpt>
<trkpt lat="-72.243109" lon="317.0"><ele></ele><time>2014-7-3T14:48:43Z</time></trkpt>
<trkpt lat="-72.243164" lon="316.0"><ele></ele><time>2014-7-3T14:48:46Z</time></trkpt>
<trkpt lat="-72.243130" lon="312.0"><ele></ele><time>2014-7-3T14:48:49Z</time></trkpt>
</trkseg></trk></gpx>